Time;durP1;ratioP1;P1;durP2;ratioP2;P2;SDS_P1;SDS_P2;PMS_P1;PMS_P2;Temp;Humidity;BMP_temperature;BMP_pressure;BME280_temperature;BME280_humidity;BME280_pressure;Samples;Min_cycle;Max_cycle;Signal;HPM_P1;HPM_P2
2024/01/08 00:00:08;;;;;;;5.37;4.53;;;-2.10;99.90;;;;;;5018635;28;20124;-65
2024/01/08 00:02:33;;;;;;;6.85;4.20;;;-2.10;99.90;;;;;;5020597;28;20120;-65
2024/01/08 00:04:59;;;;;;;6.77;5.20;;;-2.20;99.90;;;;;;5018754;28;20542;-64
2024/01/08 00:07:25;;;;;;;7.93;5.00;;;-2.20;99.90;;;;;;5021724;28;20095;-65
2024/01/08 00:09:51;;;;;;;6.45;4.40;;;-2.20;99.90;;;;;;5021830;28;20100;-64
2024/01/08 00:12:17;;;;;;;8.20;4.63;;;-2.20;99.90;;;;;;5021781;28;20069;-64
2024/01/08 00:14:42;;;;;;;8.23;5.30;;;-2.20;99.90;;;;;;5020535;28;20042;-64
2024/01/08 00:17:08;;;;;;;7.00;4.97;;;-2.20;99.90;;;;;;5017067;28;20454;-64
2024/01/08 00:19:33;;;;;;;8.37;4.93;;;-2.30;99.90;;;;;;5017001;28;20036;-65
2024/01/08 00:21:59;;;;;;;7.00;5.33;;;-2.30;99.90;;;;;;5016482;28;20065;-65
2024/01/08 00:24:25;;;;;;;7.10;4.93;;;-2.30;99.90;;;;;;5020054;28;20109;-65
2024/01/08 00:26:50;;;;;;;8.87;5.50;;;-2.30;99.90;;;;;;5018533;28;20033;-65
2024/01/08 00:29:16;;;;;;;7.43;5.27;;;-2.30;99.90;;;;;;5015932;28;20038;-66
2024/01/08 00:31:41;;;;;;;7.77;5.43;;;-2.30;99.90;;;;;;5018925;28;20030;-65
2024/01/08 00:34:08;;;;;;;7.03;4.40;;;-2.30;99.90;;;;;;5019559;28;20056;-65
2024/01/08 00:36:36;;;;;;;8.82;5.32;;;-2.30;99.90;;;;;;5028258;28;20068;-65
2024/01/08 00:39:02;;;;;;;7.32;5.38;;;-2.30;99.90;;;;;;5019473;28;20072;-65
2024/01/08 00:41:28;;;;;;;7.40;5.50;;;-2.30;99.90;;;;;;5022828;28;20065;-65
2024/01/08 00:43:53;;;;;;;10.13;4.70;;;-2.30;99.90;;;;;;5020388;28;20416;-65
2024/01/08 00:46:19;;;;;;;10.50;6.03;;;-2.30;99.90;;;;;;5022484;28;20461;-65
2024/01/08 00:48:44;;;;;;;8.30;6.23;;;-2.30;99.90;;;;;;5022656;28;20042;-65
2024/01/08 00:51:10;;;;;;;8.53;5.07;;;-2.30;99.90;;;;;;5025742;28;20116;-64
2024/01/08 00:53:36;;;;;;;8.67;4.63;;;-2.30;99.90;;;;;;5020494;28;20034;-64
2024/01/08 00:56:01;;;;;;;6.87;5.30;;;-2.30;99.90;;;;;;5021924;28;20041;-66
2024/01/08 00:58:27;;;;;;;7.03;5.07;;;-2.30;99.90;;;;;;5020022;28;20037;-65
2024/01/08 01:00:53;;;;;;;6.20;5.00;;;-2.30;99.90;;;;;;5034846;28;20060;-65
2024/01/08 01:03:19;;;;;;;6.77;5.07;;;-2.30;99.90;;;;;;5020609;28;20482;-65
2024/01/08 01:05:45;;;;;;;9.20;5.05;;;-2.20;99.90;;;;;;5018017;28;20041;-65
2024/01/08 01:08:10;;;;;;;12.40;6.20;;;-2.20;99.90;;;;;;5018868;28;20045;-65
2024/01/08 01:10:36;;;;;;;8.50;5.57;;;-2.10;99.90;;;;;;5018593;28;20045;-65
2024/01/08 01:13:01;;;;;;;7.97;6.63;;;-2.10;99.90;;;;;;5017798;28;20398;-65
2024/01/08 01:15:27;;;;;;;7.93;4.70;;;-2.00;99.90;;;;;;5018389;28;20044;-65
2024/01/08 01:17:53;;;;;;;7.20;5.83;;;-2.00;99.90;;;;;;5019239;28;20116;-65
2024/01/08 01:20:18;;;;;;;9.10;5.43;;;-1.90;99.90;;;;;;5019914;28;20038;-65
2024/01/08 01:22:44;;;;;;;8.70;5.97;;;-1.90;99.90;;;;;;5017572;28;20128;-65
2024/01/08 01:25:09;;;;;;;6.73;5.00;;;-1.90;99.90;;;;;;5018955;28;20046;-65
2024/01/08 01:27:35;;;;;;;7.77;5.40;;;-1.80;99.90;;;;;;5024466;28;20033;-66
2024/01/08 01:30:01;;;;;;;13.27;5.93;;;-1.80;99.90;;;;;;5018131;28;20312;-65
2024/01/08 01:32:26;;;;;;;7.63;5.23;;;-1.80;99.90;;;;;;5017680;28;20034;-66
2024/01/08 01:34:52;;;;;;;10.33;5.57;;;-1.70;99.90;;;;;;5021166;28;20041;-65
2024/01/08 01:37:17;;;;;;;7.13;6.03;;;-1.70;99.90;;;;;;5018319;28;20121;-65
2024/01/08 01:39:43;;;;;;;8.03;4.87;;;-1.70;99.90;;;;;;5022263;28;20045;-65
2024/01/08 01:42:10;;;;;;;8.23;6.07;;;-1.70;99.90;;;;;;5016594;28;20045;-65
2024/01/08 01:44:35;;;;;;;10.68;5.78;;;-1.60;99.90;;;;;;5019735;28;20085;-66
2024/01/08 01:47:01;;;;;;;7.47;5.10;;;-1.60;99.90;;;;;;5017181;28;20038;-65
2024/01/08 01:49:27;;;;;;;7.30;5.72;;;-1.60;99.90;;;;;;5022344;28;20073;-65
2024/01/08 01:51:56;;;;;;;7.17;4.87;;;-1.60;99.90;;;;;;5024581;28;20076;-64
2024/01/08 01:54:23;;;;;;;8.07;5.32;;;-1.50;99.90;;;;;;5024614;28;20279;-66
2024/01/08 01:56:51;;;;;;;8.10;4.72;;;-1.50;99.90;;;;;;5022374;28;20100;-65
2024/01/08 01:59:17;;;;;;;8.27;5.72;;;-1.50;99.90;;;;;;5025925;28;20037;-65
2024/01/08 02:01:45;;;;;;;10.98;6.05;;;-1.50;99.90;;;;;;5023270;28;20425;-64
2024/01/08 02:04:13;;;;;;;8.25;5.53;;;-1.40;99.90;;;;;;5027135;28;20045;-64
2024/01/08 02:06:40;;;;;;;13.50;5.88;;;-1.40;99.90;;;;;;5023255;28;20037;-66
2024/01/08 02:09:06;;;;;;;9.00;6.70;;;-1.40;99.90;;;;;;5020170;28;20460;-65
2024/01/08 02:11:32;;;;;;;;;;;-1.40;99.90;;;;;;5021092;28;20049;-64
2024/01/08 02:13:58;;;;;;;7.15;6.00;;;-1.40;99.90;;;;;;5035187;28;19917;-64
2024/01/08 02:16:24;;;;;;;8.80;6.03;;;-1.30;99.90;;;;;;5020316;28;20038;-65
2024/01/08 02:18:50;;;;;;;9.57;6.55;;;-1.40;99.90;;;;;;5019664;28;20041;-65
2024/01/08 02:21:15;;;;;;;7.20;6.20;;;-1.30;99.90;;;;;;5023684;28;20068;-65
2024/01/08 02:23:41;;;;;;;10.13;6.57;;;-1.30;99.90;;;;;;5015701;28;20494;-65
2024/01/08 02:26:09;;;;;;;11.20;7.37;;;-1.30;99.90;;;;;;5022590;28;20056;-65
2024/01/08 02:28:34;;;;;;;8.43;6.35;;;-1.30;99.90;;;;;;5021611;28;20103;-65
2024/01/08 02:31:00;;;;;;;10.83;6.47;;;-1.30;99.90;;;;;;5022702;28;20406;-65
2024/01/08 02:33:26;;;;;;;15.43;7.18;;;-1.20;99.90;;;;;;5038175;28;20038;-65
2024/01/08 02:35:51;;;;;;;13.33;6.90;;;-1.20;99.90;;;;;;5023714;28;20570;-65
2024/01/08 02:38:17;;;;;;;8.40;6.07;;;-1.20;99.90;;;;;;5023437;28;20045;-65
2024/01/08 02:40:43;;;;;;;10.00;7.47;;;-1.20;99.90;;;;;;5024788;28;20061;-65
2024/01/08 02:43:08;;;;;;;9.73;6.22;;;-1.20;99.90;;;;;;5023346;28;20065;-66
2024/01/08 02:45:34;;;;;;;10.13;7.30;;;-1.20;99.90;;;;;;5020152;28;20045;-66
2024/01/08 02:47:59;;;;;;;8.57;7.00;;;-1.20;99.90;;;;;;5018886;28;20068;-65
2024/01/08 02:50:25;;;;;;;7.20;5.93;;;-1.10;99.90;;;;;;5019836;28;21169;-65
2024/01/08 02:52:51;;;;;;;9.63;6.87;;;-1.10;99.90;;;;;;5026649;28;20034;-67
2024/01/08 02:55:16;;;;;;;8.37;6.63;;;-1.10;99.90;;;;;;5023531;28;20089;-65
2024/01/08 02:57:42;;;;;;;11.07;7.47;;;-1.10;99.90;;;;;;5022986;28;20113;-65
2024/01/08 03:00:09;;;;;;;11.23;7.57;;;-1.10;99.90;;;;;;5020390;28;20076;-65
2024/01/08 03:02:34;;;;;;;14.02;7.68;;;-1.10;99.90;;;;;;5033757;28;20141;-65
2024/01/08 03:05:00;;;;;;;12.35;7.50;;;-1.10;99.90;;;;;;5021905;28;20570;-65
2024/01/08 03:07:26;;;;;;;11.60;6.70;;;-1.10;99.90;;;;;;5022146;28;20044;-65
2024/01/08 03:09:58;;;;;;;10.48;7.15;;;-1.10;99.90;;;;;;5022086;28;20084;-65
2024/01/08 03:12:24;;;;;;;11.27;7.05;;;-1.10;99.90;;;;;;5023256;28;20037;-65
2024/01/08 03:14:49;;;;;;;12.70;7.13;;;-1.10;99.90;;;;;;5019585;28;20116;-65
2024/01/08 03:17:15;;;;;;;10.43;6.33;;;-1.00;99.90;;;;;;5025126;28;20120;-64
2024/01/08 03:19:41;;;;;;;10.57;6.90;;;-1.00;99.90;;;;;;5028113;28;20056;-66
2024/01/08 03:22:06;;;;;;;9.07;6.27;;;-1.00;99.90;;;;;;5030482;28;20037;-66
2024/01/08 03:24:32;;;;;;;11.10;6.60;;;-1.00;99.90;;;;;;5017161;28;20171;-65
2024/01/08 03:26:58;;;;;;;12.77;7.97;;;-1.00;99.90;;;;;;5022268;28;20049;-64
2024/01/08 03:29:24;;;;;;;10.98;7.32;;;-1.00;99.90;;;;;;5025219;28;20080;-65
2024/01/08 03:31:49;;;;;;;11.35;6.82;;;-0.90;99.90;;;;;;5025211;28;20042;-64
2024/01/08 03:34:15;;;;;;;10.10;6.50;;;-0.90;99.90;;;;;;5022823;28;20034;-65
2024/01/08 03:36:47;;;;;;;11.77;7.07;;;-0.90;99.90;;;;;;5022302;28;20034;-66
2024/01/08 03:39:17;;;;;;;9.48;6.00;;;-0.90;99.90;;;;;;5024792;28;20677;-66
2024/01/08 03:41:43;;;;;;;12.20;6.75;;;-0.90;99.90;;;;;;5022279;28;20049;-65
2024/01/08 03:44:09;;;;;;;13.05;7.18;;;-0.90;99.90;;;;;;5023814;28;20041;-66
2024/01/08 03:46:36;;;;;;;9.07;5.97;;;-0.90;99.90;;;;;;5024806;28;20347;-66
2024/01/08 03:49:02;;;;;;;;;;;-0.90;99.90;;;;;;5026715;28;20045;-65
2024/01/08 03:51:28;;;;;;;11.13;5.82;;;-0.90;99.90;;;;;;5030126;28;19924;-64
2024/01/08 03:53:54;;;;;;;8.73;5.80;;;-0.90;99.90;;;;;;5028039;28;20429;-66
2024/01/08 03:56:20;;;;;;;8.75;6.82;;;-0.80;99.90;;;;;;5029685;28;20044;-65
2024/01/08 03:58:45;;;;;;;12.77;7.77;;;-0.80;99.90;;;;;;5029435;28;20034;-66
2024/01/08 04:01:14;;;;;;;7.50;5.87;;;-0.80;99.90;;;;;;5025926;28;20053;-64
2024/01/08 04:03:41;;;;;;;11.40;6.32;;;-0.80;99.90;;;;;;5025863;28;20041;-64
2024/01/08 04:06:06;;;;;;;;;;;-0.90;99.90;;;;;;5023585;28;20172;-65
2024/01/08 04:08:32;;;;;;;11.10;6.82;;;-0.80;99.90;;;;;;5022164;28;20015;-64
2024/01/08 04:10:57;;;;;;;7.70;5.87;;;-0.80;99.90;;;;;;5020483;28;20080;-64
2024/01/08 04:13:23;;;;;;;8.83;5.00;;;-0.80;99.90;;;;;;5023850;28;20060;-65
2024/01/08 04:15:48;;;;;;;9.47;6.17;;;-0.80;99.90;;;;;;5021188;28;20044;-65
2024/01/08 04:18:14;;;;;;;12.03;6.30;;;-0.80;99.90;;;;;;5022567;28;20042;-65
2024/01/08 04:20:40;;;;;;;7.97;5.93;;;-0.80;99.90;;;;;;5023018;28;20129;-66
2024/01/08 04:23:06;;;;;;;6.90;5.65;;;-0.80;99.90;;;;;;5025353;28;20045;-66
2024/01/08 04:25:32;;;;;;;8.10;5.60;;;-0.80;99.90;;;;;;5019180;28;20606;-65
2024/01/08 04:27:57;;;;;;;7.10;5.53;;;-0.80;99.90;;;;;;5027399;28;20044;-65
2024/01/08 04:30:23;;;;;;;7.80;4.93;;;-0.80;99.90;;;;;;5025086;28;20044;-65
2024/01/08 04:32:49;;;;;;;11.43;6.53;;;-0.80;99.90;;;;;;5026770;28;20391;-65
2024/01/08 04:35:14;;;;;;;8.10;5.43;;;-0.80;99.90;;;;;;5022164;28;20636;-66
2024/01/08 04:37:40;;;;;;;6.70;5.03;;;-0.80;99.90;;;;;;5026555;28;20030;-65
2024/01/08 04:40:07;;;;;;;9.07;6.40;;;-0.80;99.90;;;;;;5027950;28;20331;-66
2024/01/08 04:42:33;;;;;;;10.25;7.40;;;-0.80;99.90;;;;;;5024201;28;20056;-66
2024/01/08 04:44:58;;;;;;;8.30;5.82;;;-0.80;99.90;;;;;;5024150;28;20473;-66
2024/01/08 04:47:24;;;;;;;8.77;6.63;;;-0.80;99.90;;;;;;5024466;28;20048;-65
2024/01/08 04:49:49;;;;;;;7.30;5.15;;;-0.80;99.90;;;;;;5028913;28;20114;-64
2024/01/08 04:52:15;;;;;;;8.37;5.63;;;-0.80;99.90;;;;;;5031081;28;20033;-65
2024/01/08 04:54:42;;;;;;;9.25;6.28;;;-0.80;99.90;;;;;;5025040;28;20560;-64
2024/01/08 04:57:08;;;;;;;7.45;5.68;;;-0.80;99.90;;;;;;5024236;28;20041;-65
2024/01/08 04:59:40;;;;;;;9.45;5.72;;;-0.80;99.90;;;;;;5025443;28;20037;-64
2024/01/08 05:02:05;;;;;;;6.38;5.13;;;-0.80;99.90;;;;;;5023500;28;20488;-63
2024/01/08 05:04:31;;;;;;;6.97;4.33;;;-0.80;99.90;;;;;;5022917;28;20133;-64
2024/01/08 05:06:56;;;;;;;5.63;4.40;;;-0.80;99.90;;;;;;5025877;28;20049;-64
2024/01/08 05:09:22;;;;;;;5.47;4.70;;;-0.80;99.90;;;;;;5025962;28;20413;-64
2024/01/08 05:11:48;;;;;;;10.23;4.83;;;-0.80;99.90;;;;;;5024447;28;20395;-63
2024/01/08 05:14:13;;;;;;;6.77;5.47;;;-0.80;99.90;;;;;;5023792;28;20041;-63
2024/01/08 05:16:39;;;;;;;9.87;5.10;;;-0.90;99.90;;;;;;5022740;28;20057;-64
2024/01/08 05:19:05;;;;;;;5.43;4.27;;;-0.90;99.90;;;;;;5024364;28;20046;-64
2024/01/08 05:21:30;;;;;;;5.20;4.03;;;-0.90;99.90;;;;;;5006964;28;20049;-64
2024/01/08 05:23:56;;;;;;;8.50;4.60;;;-0.90;99.90;;;;;;5020067;28;20281;-65
2024/01/08 05:26:22;;;;;;;6.33;4.13;;;-0.90;99.90;;;;;;5023119;28;20048;-64
2024/01/08 05:28:48;;;;;;;8.93;3.67;;;-0.90;99.90;;;;;;5021345;28;20053;-63
2024/01/08 05:31:13;;;;;;;8.70;5.28;;;-0.90;99.90;;;;;;5016165;28;20076;-63
2024/01/08 05:33:39;;;;;;;5.33;4.57;;;-0.90;99.90;;;;;;5021580;28;20046;-64
2024/01/08 05:36:05;;;;;;;8.90;4.73;;;-0.90;99.90;;;;;;5021774;28;20050;-64
2024/01/08 05:38:31;;;;;;;;;;;-0.90;99.90;;;;;;5022978;28;20041;-64
2024/01/08 05:40:57;;;;;;;6.63;4.70;;;-0.90;99.90;;;;;;5022294;28;19917;-65
2024/01/08 05:43:22;;;;;;;8.03;4.70;;;-0.90;99.90;;;;;;5021617;28;20623;-64
2024/01/08 05:45:49;;;;;;;6.22;4.85;;;-0.90;99.90;;;;;;5030298;28;20038;-64
2024/01/08 05:48:15;;;;;;;8.45;5.50;;;-0.90;99.90;;;;;;5029406;28;20056;-64
2024/01/08 05:50:41;;;;;;;10.37;5.53;;;-0.90;99.90;;;;;;5027154;28;20030;-64
2024/01/08 05:53:07;;;;;;;8.65;6.00;;;-0.90;99.90;;;;;;5027245;28;20029;-64
2024/01/08 05:55:32;;;;;;;5.53;4.82;;;-0.90;99.90;;;;;;5024909;28;20048;-66
2024/01/08 05:57:58;;;;;;;8.83;6.27;;;-0.90;99.90;;;;;;5028123;28;20100;-65
2024/01/08 06:00:23;;;;;;;7.95;6.10;;;-0.90;99.90;;;;;;5038924;28;20048;-65
2024/01/08 06:02:49;;;;;;;10.20;5.70;;;-0.90;99.90;;;;;;5026751;28;20033;-64
2024/01/08 06:05:15;;;;;;;11.63;6.07;;;-0.90;99.90;;;;;;5024240;28;20108;-65
2024/01/08 06:07:41;;;;;;;10.63;6.05;;;-0.90;99.90;;;;;;5028867;28;20033;-66
2024/01/08 06:10:07;;;;;;;13.77;6.17;;;-0.90;99.90;;;;;;5021001;28;20046;-65
2024/01/08 06:12:32;;;;;;;9.00;5.65;;;-0.90;99.90;;;;;;5022174;28;20041;-66
2024/01/08 06:14:58;;;;;;;9.52;5.95;;;-0.90;99.90;;;;;;5041149;28;20034;-65
2024/01/08 06:17:24;;;;;;;9.23;5.83;;;-0.90;99.90;;;;;;5022846;28;20080;-66
2024/01/08 06:19:49;;;;;;;8.20;5.30;;;-0.90;99.90;;;;;;5030581;28;20046;-66
2024/01/08 06:22:15;;;;;;;8.20;5.50;;;-0.90;99.90;;;;;;5023754;28;20485;-65
2024/01/08 06:24:41;;;;;;;9.10;5.90;;;-0.90;99.90;;;;;;5028149;28;20076;-64
2024/01/08 06:27:07;;;;;;;7.63;5.10;;;-0.90;99.90;;;;;;5025226;28;20524;-64
2024/01/08 06:29:33;;;;;;;7.38;5.28;;;-0.90;99.90;;;;;;5027345;28;20054;-64
2024/01/08 06:31:59;;;;;;;11.43;5.68;;;-0.90;99.90;;;;;;5016684;28;20112;-64
2024/01/08 06:34:25;;;;;;;5.28;4.70;;;-0.90;99.90;;;;;;5026928;28;20052;-66
2024/01/08 06:36:51;;;;;;;8.75;5.90;;;-0.90;99.90;;;;;;5019345;28;20030;-65
2024/01/08 06:39:16;;;;;;;6.90;5.63;;;-0.90;99.90;;;;;;5031008;28;20512;-66
2024/01/08 06:41:42;;;;;;;14.03;5.93;;;-0.90;99.90;;;;;;5020624;28;20040;-66
2024/01/08 06:44:08;;;;;;;6.28;5.22;;;-0.90;99.90;;;;;;5025334;28;20072;-65
2024/01/08 06:46:33;;;;;;;7.80;5.17;;;-0.90;99.90;;;;;;5039941;28;20061;-65
2024/01/08 06:48:59;;;;;;;10.23;5.87;;;-0.90;99.90;;;;;;5024795;28;20042;-64
2024/01/08 06:51:25;;;;;;;6.67;5.43;;;-0.90;99.90;;;;;;5025688;28;20030;-63
2024/01/08 06:53:50;;;;;;;12.27;6.43;;;-0.90;99.90;;;;;;5019450;28;20094;-66
2024/01/08 06:56:16;;;;;;;9.27;5.43;;;-0.90;99.90;;;;;;5022754;28;20041;-65
2024/01/08 06:58:41;;;;;;;10.07;5.97;;;-0.90;99.90;;;;;;5025168;28;20409;-65
2024/01/08 07:01:07;;;;;;;9.70;5.27;;;-0.90;99.90;;;;;;5022848;28;20120;-65
2024/01/08 07:03:34;;;;;;;8.13;5.07;;;-0.90;99.90;;;;;;5028279;28;20052;-65
2024/01/08 07:06:00;;;;;;;6.45;4.63;;;-0.90;99.90;;;;;;5022616;28;20073;-64
2024/01/08 07:08:26;;;;;;;8.38;5.22;;;-0.90;99.90;;;;;;5017238;28;20041;-65
2024/01/08 07:10:51;;;;;;;6.90;5.87;;;-0.90;99.90;;;;;;5010985;28;20077;-65
2024/01/08 07:13:18;;;;;;;12.90;4.70;;;-0.90;99.90;;;;;;5026981;28;20501;-64
2024/01/08 07:15:48;;;;;;;6.03;5.03;;;-0.80;99.90;;;;;;5025777;28;20513;-66
2024/01/08 07:18:15;;;;;;;7.93;5.10;;;-0.80;99.90;;;;;;5034882;28;20113;-65
2024/01/08 07:20:41;;;;;;;8.07;4.97;;;-0.80;99.90;;;;;;5024822;28;20044;-66
2024/01/08 07:23:10;;;;;;;8.45;5.63;;;-0.80;99.90;;;;;;5019973;28;20041;-66
2024/01/08 07:25:37;;;;;;;13.48;6.30;;;-0.80;99.90;;;;;;5020659;28;20461;-65
2024/01/08 07:28:07;;;;;;;7.45;4.78;;;-0.80;99.90;;;;;;5018643;28;20038;-65
2024/01/08 07:30:33;;;;;;;13.70;5.45;;;-0.80;99.90;;;;;;5008813;28;20060;-66
2024/01/08 07:32:59;;;;;;;8.48;6.15;;;-0.80;99.90;;;;;;5009213;28;20037;-65
2024/01/08 07:35:25;;;;;;;9.05;5.85;;;-0.70;99.90;;;;;;5004501;28;20100;-66
2024/01/08 07:37:55;;;;;;;10.80;5.93;;;-0.70;99.90;;;;;;5027088;28;20338;-66
2024/01/08 07:40:27;;;;;;;10.07;5.00;;;-0.80;99.90;;;;;;5026419;28;20045;-67
2024/01/08 07:42:54;;;;;;;7.15;4.78;;;-0.70;99.90;;;;;;5025288;28;20099;-66
2024/01/08 07:45:20;;;;;;;14.35;6.40;;;-0.70;99.90;;;;;;5023618;28;20498;-64
2024/01/08 07:47:45;;;;;;;9.73;5.03;;;-0.70;99.90;;;;;;5026641;28;20038;-65
2024/01/08 07:50:11;;;;;;;7.40;4.97;;;-0.70;99.90;;;;;;5028281;28;20546;-64
2024/01/08 07:52:37;;;;;;;11.10;5.30;;;-0.70;99.90;;;;;;5029063;28;20041;-65
2024/01/08 07:55:04;;;;;;;10.17;6.10;;;-0.70;99.90;;;;;;5047098;28;20280;-65
2024/01/08 07:57:29;;;;;;;11.93;4.85;;;-0.70;99.90;;;;;;5021866;28;20140;-65
2024/01/08 07:59:57;;;;;;;8.07;4.93;;;-0.70;99.90;;;;;;5028573;28;20136;-65
2024/01/08 08:02:23;;;;;;;8.57;5.22;;;-0.70;99.90;;;;;;5022827;28;20099;-65
2024/01/08 08:04:50;;;;;;;6.90;4.72;;;-0.70;99.90;;;;;;5020318;28;20482;-66
2024/01/08 08:07:16;;;;;;;8.13;5.45;;;-0.70;99.90;;;;;;5021438;28;20129;-66
2024/01/08 08:09:41;;;;;;;6.00;4.57;;;-0.70;99.90;;;;;;5011924;28;20491;-66
2024/01/08 08:12:07;;;;;;;9.35;5.60;;;-0.70;99.90;;;;;;5020473;28;20052;-65
2024/01/08 08:14:33;;;;;;;9.33;5.17;;;-0.70;99.90;;;;;;5027327;28;20037;-64
2024/01/08 08:16:59;;;;;;;8.30;5.38;;;-0.70;99.90;;;;;;5043647;28;20030;-65
2024/01/08 08:19:24;;;;;;;6.93;4.70;;;-0.70;99.90;;;;;;5025294;28;21034;-65
2024/01/08 08:21:50;;;;;;;10.70;4.57;;;-0.60;99.90;;;;;;5024476;28;20446;-65
2024/01/08 08:24:15;;;;;;;8.40;5.60;;;-0.60;99.90;;;;;;5021465;28;20042;-65
2024/01/08 08:26:41;;;;;;;7.23;5.63;;;-0.60;99.90;;;;;;5023477;28;20030;-65
2024/01/08 08:29:06;;;;;;;6.83;4.93;;;-0.60;99.90;;;;;;5028541;28;20441;-65
2024/01/08 08:31:32;;;;;;;11.87;5.10;;;-0.60;99.90;;;;;;5024323;28;20081;-66
2024/01/08 08:33:58;;;;;;;7.43;5.57;;;-0.50;99.90;;;;;;5034387;28;20037;-65
2024/01/08 08:36:23;;;;;;;8.27;4.70;;;-0.60;99.90;;;;;;5030944;28;20108;-65
2024/01/08 08:38:49;;;;;;;5.57;4.50;;;-0.50;99.90;;;;;;5035094;28;20105;-65
2024/01/08 08:41:14;;;;;;;6.17;3.93;;;-0.50;99.90;;;;;;5033129;28;20072;-65
2024/01/08 08:43:40;;;;;;;18.47;4.37;;;-0.50;99.90;;;;;;5026087;28;20651;-64
2024/01/08 08:46:06;;;;;;;21.30;4.73;;;-0.40;99.90;;;;;;5031200;28;20037;-65
2024/01/08 08:48:31;;;;;;;13.83;4.23;;;-0.30;99.90;;;;;;5023354;28;20050;-64
2024/01/08 08:50:57;;;;;;;6.57;3.70;;;-0.30;99.90;;;;;;5028764;28;20528;-65
2024/01/08 08:53:22;;;;;;;5.20;3.77;;;-0.20;99.90;;;;;;5028615;28;20126;-66
2024/01/08 08:55:48;;;;;;;8.13;4.27;;;-0.20;99.90;;;;;;5025382;28;20029;-65
2024/01/08 08:58:14;;;;;;;7.38;4.47;;;-0.20;99.90;;;;;;5028675;28;20088;-64
2024/01/08 09:00:39;;;;;;;6.43;3.23;;;-0.10;99.90;;;;;;5044146;28;20490;-66
2024/01/08 09:03:05;;;;;;;7.07;4.10;;;-0.10;99.90;;;;;;5026077;28;20465;-64
2024/01/08 09:05:32;;;;;;;6.28;4.25;;;-0.10;99.90;;;;;;5006777;28;20423;-65
2024/01/08 09:07:57;;;;;;;7.05;4.45;;;-0.10;99.90;;;;;;5028616;28;20082;-65
2024/01/08 09:10:23;;;;;;;6.82;3.75;;;-0.10;99.90;;;;;;5026455;28;20049;-66
2024/01/08 09:12:49;;;;;;;5.80;3.80;;;-0.10;99.90;;;;;;5021936;28;20033;-66
2024/01/08 09:15:14;;;;;;;6.43;3.87;;;-0.10;99.90;;;;;;5027229;28;20413;-66
2024/01/08 09:17:40;;;;;;;8.27;3.50;;;-0.10;99.90;;;;;;5023664;28;20029;-66
2024/01/08 09:20:09;;;;;;;5.20;3.90;;;-0.10;99.90;;;;;;5038578;28;20136;-66
2024/01/08 09:22:35;;;;;;;6.47;3.53;;;-0.10;99.90;;;;;;5031427;28;20037;-66
2024/01/08 09:25:01;;;;;;;6.60;3.60;;;-0.10;99.90;;;;;;5023865;28;20042;-66
2024/01/08 09:27:28;;;;;;;5.50;4.50;;;-0.10;99.90;;;;;;5023689;28;20049;-66
2024/01/08 09:29:53;;;;;;;4.00;3.40;;;-0.10;99.90;;;;;;5023634;28;20490;-65
2024/01/08 09:32:19;;;;;;;6.93;5.23;;;-0.10;99.90;;;;;;5028334;28;20036;-65
2024/01/08 09:34:44;;;;;;;4.63;4.13;;;0.00;99.90;;;;;;5026610;28;20042;-66
2024/01/08 09:37:10;;;;;;;5.70;3.77;;;0.00;99.90;;;;;;5029124;28;20462;-66
2024/01/08 09:39:36;;;;;;;7.50;3.53;;;0.00;99.90;;;;;;5028919;28;20056;-66
2024/01/08 09:42:04;;;;;;;15.93;4.27;;;0.00;99.90;;;;;;5024521;28;20488;-66
2024/01/08 09:44:31;;;;;;;6.38;3.40;;;0.10;99.90;;;;;;5025132;28;20120;-66
2024/01/08 09:46:58;;;;;;;6.13;4.05;;;0.10;99.90;;;;;;5024048;28;20048;-64
2024/01/08 09:49:26;;;;;;;6.65;3.35;;;0.10;99.90;;;;;;5029004;28;20048;-67
2024/01/08 09:51:53;;;;;;;5.28;3.97;;;0.10;99.90;;;;;;5026031;28;20055;-66
2024/01/08 09:54:21;;;;;;;7.90;3.72;;;0.20;99.90;;;;;;5029806;28;20033;-66
2024/01/08 09:56:50;;;;;;;6.32;4.13;;;0.20;99.90;;;;;;5021435;28;20040;-65
2024/01/08 09:59:16;;;;;;;7.32;3.60;;;0.20;99.90;;;;;;5032691;28;20037;-67
2024/01/08 10:01:43;;;;;;;3.83;3.42;;;0.20;99.90;;;;;;5041056;28;20041;-62
2024/01/08 10:04:09;;;;;;;6.63;4.43;;;0.20;99.90;;;;;;5018026;28;20069;-64
2024/01/08 10:06:34;;;;;;;11.27;4.78;;;0.20;99.90;;;;;;5027831;28;20073;-64
2024/01/08 10:09:00;;;;;;;5.57;3.97;;;0.20;99.90;;;;;;5024215;28;20122;-65
2024/01/08 10:11:26;;;;;;;3.63;2.83;;;0.20;99.90;;;;;;5021573;28;20121;-65
2024/01/08 10:13:52;;;;;;;5.00;4.30;;;0.10;99.90;;;;;;5022423;28;20657;-65
2024/01/08 10:16:18;;;;;;;5.78;3.72;;;0.20;99.90;;;;;;5023926;28;20456;-66
2024/01/08 10:18:50;;;;;;;6.17;3.93;;;0.20;99.90;;;;;;5019348;28;20088;-64
2024/01/08 10:21:17;;;;;;;4.25;3.75;;;0.20;99.90;;;;;;5018949;28;20030;-65
2024/01/08 10:23:43;;;;;;;4.78;3.40;;;0.20;99.90;;;;;;5016789;28;20048;-65
2024/01/08 10:26:13;;;;;;;7.72;3.85;;;0.80;99.90;;;;;;5021682;28;20033;-65
2024/01/08 10:28:39;;;;;;;4.55;2.88;;;1.60;99.90;;;;;;5020190;28;20041;-64
2024/01/08 10:31:10;;;;;;;4.90;2.70;;;2.30;99.90;;;;;;5029230;28;20040;-65
2024/01/08 10:33:36;;;;;;;3.35;2.30;;;2.50;99.90;;;;;;5020083;28;20077;-67
2024/01/08 10:36:05;;;;;;;7.47;3.07;;;2.40;99.90;;;;;;5023769;28;20122;-64
2024/01/08 10:38:34;;;;;;;6.50;2.83;;;2.20;99.90;;;;;;5021212;28;20344;-65
2024/01/08 10:41:01;;;;;;;5.43;2.80;;;2.50;99.90;;;;;;5026030;28;20040;-66
2024/01/08 10:43:30;;;;;;;5.07;2.92;;;3.50;99.90;;;;;;5020112;28;20037;-65
2024/01/08 10:46:04;;;;;;;5.18;3.25;;;3.80;99.90;;;;;;5024756;28;20041;-65
2024/01/08 10:48:40;;;;;;;5.95;4.13;;;3.60;99.90;;;;;;5031231;28;20037;-67
2024/01/08 10:51:07;;;;;;;6.30;3.78;;;3.20;99.90;;;;;;5023105;28;20052;-65
2024/01/08 10:53:39;;;;;;;4.53;3.33;;;3.10;99.90;;;;;;5022880;28;20490;-65
2024/01/08 10:56:09;;;;;;;4.57;2.72;;;3.60;99.90;;;;;;5014030;28;20045;-65
2024/01/08 10:58:38;;;;;;;4.38;2.28;;;4.60;99.90;;;;;;5025805;28;20056;-63
2024/01/08 11:01:03;;;;;;;4.90;2.72;;;5.70;99.90;;;;;;5025393;28;20523;-64
2024/01/08 11:03:30;;;;;;;4.53;2.47;;;6.10;99.90;;;;;;5021971;28;20120;-63
2024/01/08 11:05:58;;;;;;;4.95;2.55;;;5.60;99.10;;;;;;5022024;28;20034;-64
2024/01/08 11:08:25;;;;;;;5.30;2.97;;;4.90;99.00;;;;;;5001710;28;20049;-65
2024/01/08 11:10:51;;;;;;;5.63;3.20;;;4.30;99.40;;;;;;5022835;28;20102;-64
2024/01/08 11:13:16;;;;;;;4.80;3.53;;;3.70;99.60;;;;;;5020890;28;20502;-67
2024/01/08 11:15:46;;;;;;;7.15;4.38;;;3.20;99.90;;;;;;5021643;28;20034;-67
2024/01/08 11:18:28;;;;;;;5.22;2.55;;;2.90;99.90;;;;;;5024795;28;20048;-64
2024/01/08 11:20:56;;;;;;;4.53;2.90;;;2.60;99.90;;;;;;5023028;28;20405;-64
2024/01/08 11:23:40;;;;;;;3.60;3.28;;;3.00;99.90;;;;;;5024391;28;20049;-63
2024/01/08 11:26:21;;;;;;;4.70;2.75;;;4.40;99.90;;;;;;5022458;28;20052;-63
2024/01/08 11:29:04;;;;;;;4.80;2.55;;;6.00;99.90;;;;;;5021585;28;20464;-64
2024/01/08 11:32:10;;;;;;;8.93;2.40;;;7.90;96.10;;;;;;5023219;28;20092;-65
2024/01/08 11:35:03;;;;;;;6.15;1.80;;;9.20;89.50;;;;;;5027836;28;20030;-65
2024/01/08 11:37:37;;;;;;;2.60;1.83;;;10.30;81.00;;;;;;5021402;28;20091;-64
2024/01/08 11:40:09;;;;;;;3.70;2.20;;;10.80;73.80;;;;;;5024730;28;20073;-65
2024/01/08 11:42:35;;;;;;;3.67;2.67;;;11.20;71.60;;;;;;5028026;28;20041;-65
2024/01/08 11:45:02;;;;;;;4.00;2.37;;;11.80;69.50;;;;;;5028074;28;20075;-65
2024/01/08 11:47:30;;;;;;;3.47;2.13;;;11.80;66.00;;;;;;5027822;28;20442;-65
2024/01/08 11:49:56;;;;;;;5.25;1.63;;;12.80;68.80;;;;;;5027413;28;20042;-64
2024/01/08 11:52:24;;;;;;;3.90;1.63;;;13.20;65.60;;;;;;5028670;28;20044;-63
2024/01/08 11:54:52;;;;;;;6.80;2.45;;;13.80;64.80;;;;;;5028007;28;20038;-65
2024/01/08 11:57:19;;;;;;;2.75;2.35;;;14.00;63.20;;;;;;5026573;28;20521;-66
2024/01/08 11:59:46;;;;;;;4.82;2.50;;;14.10;62.20;;;;;;5008598;28;20513;-65
2024/01/08 12:02:20;;;;;;;4.22;2.25;;;14.90;63.40;;;;;;5024358;28;20417;-65
2024/01/08 12:04:58;;;;;;;5.65;2.80;;;14.80;59.90;;;;;;5026812;28;20521;-64
2024/01/08 12:07:28;;;;;;;3.38;2.17;;;14.70;59.00;;;;;;5022060;28;20065;-64
2024/01/08 12:09:55;;;;;;;2.78;2.17;;;14.20;58.80;;;;;;5026564;28;20147;-65
2024/01/08 12:12:24;;;;;;;4.10;2.83;;;14.10;60.30;;;;;;5024313;28;20041;-66
2024/01/08 12:14:51;;;;;;;3.50;2.58;;;14.00;59.10;;;;;;5022133;28;20385;-67
2024/01/08 12:17:20;;;;;;;3.60;2.50;;;14.00;59.60;;;;;;5022504;28;20033;-65
2024/01/08 12:19:57;;;;;;;4.05;2.72;;;13.20;57.30;;;;;;5025661;28;20041;-66
2024/01/08 12:22:23;;;;;;;3.92;2.85;;;13.30;58.30;;;;;;5022369;28;20096;-67
2024/01/08 12:24:51;;;;;;;4.68;3.42;;;13.60;59.20;;;;;;5023624;28;20688;-66
2024/01/08 12:27:19;;;;;;;4.28;2.30;;;14.20;60.10;;;;;;5024676;28;20076;-67
2024/01/08 12:29:46;;;;;;;4.65;3.00;;;15.30;60.00;;;;;;5024979;28;20530;-67
2024/01/08 12:32:15;;;;;;;3.17;2.33;;;16.20;58.80;;;;;;5020900;28;20077;-64
2024/01/08 12:34:42;;;;;;;2.78;2.28;;;16.30;56.80;;;;;;5024368;28;20042;-66
2024/01/08 12:37:08;;;;;;;3.38;3.05;;;16.60;58.20;;;;;;5026515;28;20108;-66
2024/01/08 12:39:34;;;;;;;3.35;2.63;;;17.00;56.90;;;;;;5020652;28;20091;-66
2024/01/08 12:42:09;;;;;;;4.63;2.53;;;17.60;57.20;;;;;;5023722;28;20108;-65
2024/01/08 12:44:40;;;;;;;3.97;2.70;;;17.70;56.50;;;;;;5024903;28;20094;-65